Time;durP1;ratioP1;P1;durP2;ratioP2;P2;SDS_P1;SDS_P2;PMS_P1;PMS_P2;Temp;Humidity;BMP_temperature;BMP_pressure;BME280_temperature;BME280_humidity;BME280_pressure;Samples;Min_cycle;Max_cycle;Signal;HPM_P1;HPM_P2
2022/04/03 00:01:42;;;;;;;3.88;3.50;;;5.00;99.90;;;;;;5065462;28;20223;-87
2022/04/03 00:04:12;;;;;;;4.85;4.13;;;5.10;99.90;;;;;;5070415;28;20199;-87
2022/04/03 00:06:40;;;;;;;3.42;3.13;;;5.00;99.90;;;;;;5067238;28;20198;-88
2022/04/03 00:09:08;;;;;;;4.95;3.30;;;5.10;99.90;;;;;;5064055;28;20195;-87
2022/04/03 00:11:37;;;;;;;5.97;3.50;;;5.00;99.90;;;;;;5062054;28;20223;-87
2022/04/03 00:14:05;;;;;;;4.40;3.60;;;5.00;99.90;;;;;;5067818;28;20203;-87
2022/04/03 00:16:35;;;;;;;3.85;3.10;;;4.90;99.90;;;;;;5065060;28;20802;-86
2022/04/03 00:19:03;;;;;;;3.45;3.13;;;4.90;99.90;;;;;;5060132;28;20187;-88
2022/04/03 00:21:33;;;;;;;4.53;3.67;;;5.20;99.90;;;;;;5060812;28;20222;-88
2022/04/03 00:24:01;;;;;;;4.43;3.20;;;4.90;99.90;;;;;;5066145;28;20657;-88
2022/04/03 00:26:30;;;;;;;7.00;4.80;;;4.90;99.90;;;;;;5065158;28;20277;-87
2022/04/03 00:28:58;;;;;;;3.72;3.22;;;5.00;99.90;;;;;;5066916;28;20201;-87
2022/04/03 00:31:26;;;;;;;3.95;2.92;;;5.00;99.90;;;;;;5067146;28;20257;-87
2022/04/03 00:33:55;;;;;;;5.53;3.47;;;4.90;99.90;;;;;;5060820;28;20187;-87
2022/04/03 00:36:23;;;;;;;6.38;3.88;;;5.00;99.90;;;;;;5061568;28;20188;-85
2022/04/03 00:38:53;;;;;;;5.05;3.67;;;5.00;99.90;;;;;;5068539;28;20578;-85
2022/04/03 00:41:22;;;;;;;4.68;3.83;;;5.00;99.90;;;;;;5064377;28;20295;-86
2022/04/03 00:43:50;;;;;;;6.55;4.35;;;4.90;99.90;;;;;;5067483;28;20230;-86
2022/04/03 00:46:21;;;;;;;4.22;3.70;;;5.00;99.90;;;;;;5066305;28;20684;-86
2022/04/03 00:48:50;;;;;;;6.30;4.10;;;5.00;99.90;;;;;;5065636;28;20292;-86
2022/04/03 00:51:19;;;;;;;5.57;5.07;;;5.00;99.90;;;;;;5064266;28;20222;-84
2022/04/03 00:53:47;;;;;;;4.75;4.22;;;5.00;99.90;;;;;;5070639;28;20211;-87
2022/04/03 00:56:17;;;;;;;4.38;3.53;;;5.00;99.90;;;;;;5068683;28;20256;-87
2022/04/03 00:58:45;;;;;;;5.90;5.07;;;5.00;99.90;;;;;;5064745;28;20209;-87
2022/04/03 01:01:14;;;;;;;4.82;3.78;;;4.90;99.90;;;;;;5065811;28;20218;-88
2022/04/03 01:03:42;;;;;;;5.97;3.58;;;4.90;99.90;;;;;;5067424;28;20204;-87
2022/04/03 01:06:11;;;;;;;9.30;4.32;;;5.00;99.90;;;;;;5066354;28;20197;-86
2022/04/03 01:08:42;;;;;;;4.60;3.85;;;4.90;99.90;;;;;;5062417;28;20259;-86
2022/04/03 01:11:12;;;;;;;4.03;3.58;;;4.90;99.90;;;;;;5063359;28;20228;-86
2022/04/03 01:13:49;;;;;;;7.55;4.05;;;5.20;99.90;;;;;;5066709;28;20206;-86
2022/04/03 01:16:18;;;;;;;4.10;3.70;;;5.00;99.90;;;;;;5065368;28;20286;-86
2022/04/03 01:18:46;;;;;;;4.38;3.85;;;4.90;99.90;;;;;;5070519;28;20674;-83
2022/04/03 01:21:16;;;;;;;4.03;3.17;;;4.90;99.90;;;;;;5058113;28;20228;-85
2022/04/03 01:23:46;;;;;;;5.50;4.47;;;4.90;99.90;;;;;;5067348;28;20190;-84
2022/04/03 01:26:17;;;;;;;7.28;5.40;;;4.90;99.90;;;;;;5064574;28;20575;-84
2022/04/03 01:28:45;;;;;;;5.72;3.97;;;4.90;99.90;;;;;;5060745;28;20205;-84
2022/04/03 01:31:13;;;;;;;5.93;4.22;;;4.90;99.90;;;;;;5058499;28;20209;-84
2022/04/03 01:33:41;;;;;;;5.32;3.50;;;4.90;99.90;;;;;;5064954;28;20194;-84
2022/04/03 01:36:10;;;;;;;5.97;4.88;;;4.80;99.90;;;;;;5071841;28;20212;-85
2022/04/03 01:38:38;;;;;;;4.63;4.22;;;4.80;99.90;;;;;;5067458;28;20799;-85
2022/04/03 01:41:06;;;;;;;6.00;4.80;;;4.80;99.90;;;;;;5070545;28;20219;-84
2022/04/03 01:43:35;;;;;;;3.88;3.40;;;4.80;99.90;;;;;;5063159;28;20195;-85
2022/04/03 01:46:04;;;;;;;6.38;4.47;;;4.90;99.90;;;;;;5065241;28;20218;-84
2022/04/03 01:48:32;;;;;;;6.22;4.32;;;5.20;99.90;;;;;;5071286;28;20201;-85
2022/04/03 01:51:00;;;;;;;5.50;4.50;;;4.90;99.90;;;;;;5070477;28;20214;-84
2022/04/03 01:53:29;;;;;;;6.05;4.35;;;4.80;99.90;;;;;;5064373;28;20202;-85
2022/04/03 01:56:01;;;;;;;5.82;4.57;;;4.90;99.90;;;;;;5069460;28;20198;-86
2022/04/03 01:58:29;;;;;;;7.05;5.18;;;4.80;99.90;;;;;;5069712;28;20231;-87
2022/04/03 02:00:59;;;;;;;8.15;4.93;;;4.80;99.90;;;;;;5070602;28;20216;-87
2022/04/03 02:03:29;;;;;;;5.20;3.92;;;4.90;99.90;;;;;;5061413;28;20332;-87
2022/04/03 02:05:57;;;;;;;5.25;4.50;;;4.80;99.90;;;;;;5067004;28;20202;-87
2022/04/03 02:08:26;;;;;;;6.05;4.80;;;4.80;99.90;;;;;;5067149;28;20191;-86
2022/04/03 02:10:54;;;;;;;5.07;3.97;;;4.80;99.90;;;;;;5068001;28;20214;-86
2022/04/03 02:13:22;;;;;;;4.50;4.07;;;4.80;99.90;;;;;;5066455;28;20194;-87
2022/04/03 02:15:51;;;;;;;5.28;4.38;;;4.80;99.90;;;;;;5061026;28;20531;-87
2022/04/03 02:18:20;;;;;;;7.28;4.55;;;4.80;99.90;;;;;;5069384;28;20199;-86
2022/04/03 02:20:49;;;;;;;6.40;5.20;;;4.80;99.90;;;;;;5063769;28;20222;-87
2022/04/03 02:23:17;;;;;;;6.13;3.90;;;4.90;99.90;;;;;;5070751;28;20213;-87
2022/04/03 02:25:49;;;;;;;4.95;3.97;;;5.00;99.90;;;;;;5075452;28;20205;-88
2022/04/03 02:28:18;;;;;;;5.57;4.18;;;5.00;99.90;;;;;;5072676;28;20466;-85
2022/04/03 02:30:47;;;;;;;6.53;4.65;;;5.00;99.90;;;;;;5063382;28;20228;-86
2022/04/03 02:33:16;;;;;;;4.55;4.05;;;4.90;99.90;;;;;;5065995;28;20197;-87
2022/04/03 02:35:45;;;;;;;5.95;4.88;;;4.80;99.90;;;;;;5067220;28;20205;-86
2022/04/03 02:38:15;;;;;;;6.47;4.43;;;4.80;99.90;;;;;;5072760;28;20196;-87
2022/04/03 02:40:45;;;;;;;5.60;4.78;;;5.00;99.90;;;;;;5064848;28;20215;-87
2022/04/03 02:43:14;;;;;;;5.72;4.07;;;5.20;99.90;;;;;;5070573;28;20191;-87
2022/04/03 02:45:42;;;;;;;6.53;4.18;;;5.00;99.90;;;;;;5067219;28;20199;-88
2022/04/03 02:48:11;;;;;;;5.68;4.30;;;5.00;99.90;;;;;;5065148;28;20195;-88
2022/04/03 02:50:40;;;;;;;6.55;5.00;;;4.90;99.90;;;;;;5064324;28;20227;-88
2022/04/03 02:53:09;;;;;;;6.25;4.82;;;4.90;99.90;;;;;;5063451;28;20203;-88
2022/04/03 02:55:37;;;;;;;5.40;4.85;;;5.10;99.90;;;;;;5067191;28;20199;-88
2022/04/03 02:58:06;;;;;;;4.70;4.00;;;5.00;99.90;;;;;;5069294;28;20191;-86
2022/04/03 03:00:35;;;;;;;5.80;4.85;;;5.20;99.90;;;;;;5063490;28;20705;-88
2022/04/03 03:03:06;;;;;;;5.55;4.10;;;4.90;99.90;;;;;;5061814;28;20191;-86
2022/04/03 03:05:35;;;;;;;8.18;5.28;;;4.90;99.90;;;;;;5069839;28;20266;-86
2022/04/03 03:08:04;;;;;;;4.88;4.35;;;4.90;99.90;;;;;;5069429;28;20198;-86
2022/04/03 03:10:34;;;;;;;6.68;5.03;;;5.00;99.90;;;;;;5073707;28;20578;-87
2022/04/03 03:13:02;;;;;;;6.18;5.40;;;4.80;99.90;;;;;;5071316;28;20223;-86
2022/04/03 03:15:30;;;;;;;5.30;4.53;;;4.90;99.90;;;;;;5068822;28;20187;-86
2022/04/03 03:17:59;;;;;;;7.28;4.95;;;4.80;99.90;;;;;;5062707;28;20597;-85
2022/04/03 03:20:27;;;;;;;5.93;5.18;;;4.90;99.90;;;;;;5069906;28;20223;-86
2022/04/03 03:22:55;;;;;;;5.90;4.90;;;5.10;99.90;;;;;;5066412;28;20192;-85
2022/04/03 03:25:28;;;;;;;8.25;5.00;;;5.10;99.90;;;;;;5060781;28;20220;-86
2022/04/03 03:27:58;;;;;;;5.28;4.25;;;4.90;99.90;;;;;;5062939;28;20226;-86
2022/04/03 03:30:26;;;;;;;9.00;5.22;;;4.90;99.90;;;;;;5060325;28;20240;-85
2022/04/03 03:32:54;;;;;;;8.60;5.30;;;4.90;99.90;;;;;;5069732;28;20285;-85
2022/04/03 03:35:23;;;;;;;8.70;6.03;;;5.10;99.90;;;;;;5062401;28;20662;-86
2022/04/03 03:37:51;;;;;;;6.95;5.50;;;4.80;99.90;;;;;;5064358;28;20205;-85
2022/04/03 03:40:19;;;;;;;6.43;5.45;;;4.80;99.90;;;;;;5064364;28;20216;-86
2022/04/03 03:42:52;;;;;;;5.45;4.32;;;4.90;99.90;;;;;;5069501;28;20197;-87
2022/04/03 03:45:22;;;;;;;6.65;4.85;;;5.00;99.90;;;;;;5065735;28;20718;-86
2022/04/03 03:47:50;;;;;;;5.38;4.20;;;4.90;99.90;;;;;;5062797;28;20203;-83
2022/04/03 03:50:19;;;;;;;7.65;4.85;;;4.90;99.90;;;;;;5067929;28;20214;-84
2022/04/03 03:52:47;;;;;;;8.02;5.70;;;4.70;99.90;;;;;;5065145;28;20215;-85
2022/04/03 03:55:15;;;;;;;5.40;4.90;;;4.70;99.90;;;;;;5067149;28;20203;-86
2022/04/03 03:57:45;;;;;;;6.65;4.35;;;4.80;99.90;;;;;;5066506;28;20195;-85
2022/04/03 04:00:15;;;;;;;7.05;5.38;;;4.80;99.90;;;;;;5064293;28;20195;-86
2022/04/03 04:02:44;;;;;;;6.22;4.55;;;4.90;99.90;;;;;;5063153;28;20209;-87
2022/04/03 04:05:13;;;;;;;7.55;5.13;;;4.80;99.90;;;;;;5066692;28;20240;-86
2022/04/03 04:07:43;;;;;;;5.63;4.25;;;4.80;99.90;;;;;;5068414;28;20210;-86
2022/04/03 04:10:13;;;;;;;6.78;4.63;;;4.90;99.90;;;;;;5064997;28;20190;-87
2022/04/03 04:12:42;;;;;;;6.40;4.55;;;4.90;99.90;;;;;;5059470;28;20943;-87
2022/04/03 04:15:12;;;;;;;5.20;4.38;;;4.90;99.90;;;;;;5058926;28;20211;-87
2022/04/03 04:17:43;;;;;;;5.20;3.72;;;4.80;99.90;;;;;;5060135;28;20720;-87
2022/04/03 04:20:15;;;;;;;7.63;4.45;;;4.70;99.90;;;;;;5066172;28;20207;-86
2022/04/03 04:22:44;;;;;;;8.20;5.00;;;5.00;99.90;;;;;;5065440;28;20201;-86
2022/04/03 04:25:14;;;;;;;7.63;5.25;;;4.90;99.90;;;;;;5067797;28;20217;-85
2022/04/03 04:27:42;;;;;;;7.55;4.20;;;4.70;99.90;;;;;;5071199;28;20210;-85
2022/04/03 04:30:11;;;;;;;5.90;5.20;;;5.10;99.90;;;;;;5062778;28;20204;-85
2022/04/03 04:32:40;;;;;;;4.70;4.20;;;4.70;99.90;;;;;;5063076;28;20248;-85
2022/04/03 04:35:09;;;;;;;6.43;4.30;;;4.60;99.90;;;;;;5067472;28;20450;-85
2022/04/03 04:37:38;;;;;;;6.28;4.35;;;4.70;99.90;;;;;;5066312;28;20286;-85
2022/04/03 04:40:09;;;;;;;6.38;4.70;;;4.60;99.90;;;;;;5067246;28;20254;-86
2022/04/03 04:42:37;;;;;;;5.53;4.03;;;4.60;99.90;;;;;;5059647;28;20198;-85
2022/04/03 04:45:09;;;;;;;7.00;4.70;;;4.30;99.90;;;;;;5067924;28;20273;-86
2022/04/03 04:47:44;;;;;;;5.78;5.18;;;4.60;99.90;;;;;;5068455;28;20220;-86
2022/04/03 04:50:15;;;;;;;7.88;4.93;;;4.90;99.90;;;;;;5067357;28;20255;-84
2022/04/03 04:52:45;;;;;;;6.93;4.95;;;4.80;99.90;;;;;;5069109;28;20270;-86
2022/04/03 04:55:13;;;;;;;7.18;5.05;;;4.70;99.90;;;;;;5064526;28;20200;-87
2022/04/03 04:57:41;;;;;;;6.15;4.90;;;4.80;99.90;;;;;;5077894;28;20567;-86
2022/04/03 05:00:13;;;;;;;7.07;4.50;;;4.60;99.90;;;;;;5065302;28;20198;-87
2022/04/03 05:02:45;;;;;;;5.47;4.43;;;4.60;99.90;;;;;;5060693;28;20191;-86
2022/04/03 05:05:14;;;;;;;7.95;4.47;;;4.60;99.90;;;;;;5065825;28;20197;-86
2022/04/03 05:07:44;;;;;;;6.30;5.10;;;4.80;99.90;;;;;;5067284;28;20875;-85
2022/04/03 05:10:15;;;;;;;7.53;5.15;;;4.60;99.90;;;;;;5062583;28;20671;-85
2022/04/03 05:12:44;;;;;;;6.07;4.90;;;4.60;99.90;;;;;;5061755;28;20733;-83
2022/04/03 05:15:13;;;;;;;8.90;5.45;;;4.60;99.90;;;;;;5069384;28;20200;-84
2022/04/03 05:17:43;;;;;;;9.38;5.25;;;4.80;99.90;;;;;;5067965;28;20210;-86
2022/04/03 05:20:13;;;;;;;6.07;5.28;;;4.50;99.90;;;;;;5072422;28;20206;-86
2022/04/03 05:22:41;;;;;;;6.60;4.50;;;4.60;99.90;;;;;;5074364;28;20567;-85
2022/04/03 05:25:12;;;;;;;7.32;5.22;;;4.60;99.90;;;;;;5065074;28;20268;-85
2022/04/03 05:27:42;;;;;;;5.50;4.35;;;4.60;99.90;;;;;;5071127;28;20194;-86
2022/04/03 05:30:12;;;;;;;5.30;4.22;;;4.50;99.90;;;;;;5067552;28;20198;-86
2022/04/03 05:32:40;;;;;;;8.07;5.55;;;4.60;99.90;;;;;;5070741;28;20255;-86
2022/04/03 05:35:10;;;;;;;8.05;4.38;;;4.60;99.90;;;;;;5066604;28;20195;-85
2022/04/03 05:37:43;;;;;;;6.28;5.18;;;4.50;99.90;;;;;;5067876;28;20199;-87
2022/04/03 05:40:15;;;;;;;6.60;4.97;;;4.50;99.90;;;;;;5063217;28;20194;-87
2022/04/03 05:42:44;;;;;;;6.90;4.50;;;4.70;99.90;;;;;;5067975;28;20205;-87
2022/04/03 05:45:13;;;;;;;5.43;4.47;;;4.60;99.90;;;;;;5065643;28;20203;-88
2022/04/03 05:47:41;;;;;;;5.20;4.53;;;4.70;99.90;;;;;;5072837;28;20202;-87
2022/04/03 05:50:11;;;;;;;8.25;4.53;;;4.70;99.90;;;;;;5067570;28;20211;-85
2022/04/03 05:52:42;;;;;;;5.15;4.00;;;4.80;99.90;;;;;;5067419;28;20224;-87
2022/04/03 05:55:11;;;;;;;5.20;4.30;;;4.60;99.90;;;;;;5067399;28;20740;-87
2022/04/03 05:57:40;;;;;;;6.45;4.57;;;4.70;99.90;;;;;;5070505;28;20256;-86
2022/04/03 06:00:12;;;;;;;7.57;5.70;;;4.90;99.90;;;;;;5071320;28;20198;-83
2022/04/03 06:02:50;;;;;;;5.75;4.95;;;4.60;99.90;;;;;;5071202;28;20218;-84
2022/04/03 06:05:20;;;;;;;5.45;4.65;;;4.60;99.90;;;;;;5065823;28;20217;-83
2022/04/03 06:07:48;;;;;;;7.50;5.25;;;4.70;99.90;;;;;;5064331;28;20208;-83
2022/04/03 06:10:18;;;;;;;7.00;5.32;;;4.70;99.90;;;;;;5069902;28;20190;-83
2022/04/03 06:13:00;;;;;;;5.68;4.13;;;4.70;99.90;;;;;;5061808;28;20216;-83
2022/04/03 06:15:33;;;;;;;7.05;4.93;;;4.60;99.90;;;;;;5068694;28;20207;-81
2022/04/03 06:18:02;;;;;;;7.82;5.13;;;4.60;99.90;;;;;;5064567;28;20207;-81
2022/04/03 06:20:31;;;;;;;4.70;4.30;;;4.70;99.90;;;;;;5063808;28;20231;-82
2022/04/03 06:23:00;;;;;;;5.07;4.57;;;4.90;99.90;;;;;;5063670;28;20191;-82
2022/04/03 06:25:28;;;;;;;5.95;4.53;;;5.00;99.90;;;;;;5064115;28;20208;-82
2022/04/03 06:27:59;;;;;;;6.78;4.50;;;4.70;99.90;;;;;;5062180;28;20208;-83
2022/04/03 06:30:27;;;;;;;5.18;4.68;;;4.70;99.90;;;;;;5065470;28;20702;-83
2022/04/03 06:32:55;;;;;;;6.30;5.47;;;4.60;99.90;;;;;;5062397;28;20198;-82
2022/04/03 06:35:24;;;;;;;5.97;4.25;;;4.60;99.90;;;;;;5061380;28;20207;-84
2022/04/03 06:37:52;;;;;;;4.65;4.15;;;5.00;99.90;;;;;;5068978;28;20204;-83
2022/04/03 06:40:20;;;;;;;5.72;5.07;;;4.70;99.90;;;;;;5072631;28;20276;-83
2022/04/03 06:42:49;;;;;;;7.90;4.55;;;4.80;99.90;;;;;;5071784;28;20203;-83
2022/04/03 06:45:18;;;;;;;7.32;4.55;;;4.80;99.90;;;;;;5067898;28;20621;-82
2022/04/03 06:47:47;;;;;;;6.40;4.78;;;4.80;99.90;;;;;;5064522;28;20215;-84
2022/04/03 06:50:15;;;;;;;5.75;3.90;;;4.80;99.90;;;;;;5065745;28;20199;-84
2022/04/03 06:52:43;;;;;;;5.50;4.35;;;4.80;99.90;;;;;;5063983;28;20217;-82
2022/04/03 06:55:12;;;;;;;5.32;3.88;;;5.00;99.90;;;;;;5063653;28;20245;-81
2022/04/03 06:57:40;;;;;;;6.85;4.95;;;4.90;99.90;;;;;;5064960;28;20258;-82
2022/04/03 07:00:11;;;;;;;6.93;4.30;;;4.90;99.90;;;;;;5067247;28;20223;-83
2022/04/03 07:02:40;;;;;;;5.15;4.40;;;4.90;99.90;;;;;;5064518;28;20192;-81
2022/04/03 07:05:10;;;;;;;6.15;3.75;;;4.90;99.90;;;;;;5071154;28;20252;-82
2022/04/03 07:07:38;;;;;;;4.25;3.85;;;4.90;99.90;;;;;;5057572;28;20195;-82
2022/04/03 07:10:08;;;;;;;5.43;4.40;;;5.00;99.90;;;;;;5063132;28;20562;-80
2022/04/03 07:12:37;;;;;;;6.70;4.45;;;5.00;99.90;;;;;;5061734;28;20203;-81
2022/04/03 07:15:08;;;;;;;6.88;4.72;;;5.00;99.90;;;;;;5065871;28;20207;-81
2022/04/03 07:17:37;;;;;;;9.23;5.25;;;4.90;99.90;;;;;;5061777;28;20238;-80
2022/04/03 07:20:08;;;;;;;6.88;4.70;;;5.20;99.90;;;;;;5065021;28;20196;-79
2022/04/03 07:22:36;;;;;;;6.55;3.88;;;5.00;99.90;;;;;;5060293;28;20193;-82
2022/04/03 07:25:05;;;;;;;7.03;5.15;;;5.00;99.90;;;;;;5060956;28;20197;-79
2022/04/03 07:27:33;;;;;;;6.95;4.50;;;4.90;99.90;;;;;;5064168;28;20379;-81
2022/04/03 07:30:01;;;;;;;6.40;4.20;;;4.90;99.90;;;;;;5060377;28;20218;-81
2022/04/03 07:32:29;;;;;;;8.43;5.82;;;5.00;99.90;;;;;;5060664;28;20448;-79
2022/04/03 07:34:58;;;;;;;5.22;4.72;;;5.00;99.90;;;;;;5061057;28;20222;-83
2022/04/03 07:37:27;;;;;;;5.15;3.88;;;5.00;99.90;;;;;;5058987;28;20282;-80
2022/04/03 07:39:55;;;;;;;4.43;3.88;;;5.10;99.90;;;;;;5080826;28;20802;-79
2022/04/03 07:42:24;;;;;;;5.70;4.60;;;5.00;99.90;;;;;;5062461;28;20264;-80
2022/04/03 07:44:52;;;;;;;4.93;4.43;;;5.10;99.90;;;;;;5061805;28;20207;-80
2022/04/03 07:47:20;;;;;;;5.68;4.25;;;5.10;99.90;;;;;;5063080;28;20246;-80
2022/04/03 07:49:48;;;;;;;4.32;3.92;;;5.20;99.90;;;;;;5063913;28;20203;-80
2022/04/03 07:52:17;;;;;;;5.53;4.30;;;5.30;99.90;;;;;;5059876;28;21726;-80
2022/04/03 07:54:46;;;;;;;4.63;3.33;;;5.20;99.90;;;;;;5060263;28;20566;-79
2022/04/03 07:57:18;;;;;;;4.38;3.65;;;5.30;99.90;;;;;;5059757;28;20198;-79
2022/04/03 07:59:46;;;;;;;4.47;3.60;;;5.40;99.90;;;;;;5062475;28;20765;-80
2022/04/03 08:02:14;;;;;;;4.55;2.88;;;5.30;99.90;;;;;;5062717;28;20266;-81
2022/04/03 08:04:42;;;;;;;3.80;3.40;;;5.40;99.90;;;;;;5060966;28;20203;-82
2022/04/03 08:07:11;;;;;;;3.88;3.05;;;5.90;99.90;;;;;;5063510;28;20452;-83
2022/04/03 08:09:39;;;;;;;3.65;3.20;;;5.70;99.90;;;;;;5063387;28;20198;-82
2022/04/03 08:12:10;;;;;;;3.92;3.53;;;6.00;99.90;;;;;;5064185;28;20227;-81
2022/04/03 08:14:39;;;;;;;4.05;3.75;;;5.90;99.90;;;;;;5064113;28;20215;-80
2022/04/03 08:17:07;;;;;;;3.50;3.20;;;5.90;99.90;;;;;;5064144;28;20243;-81
2022/04/03 08:19:35;;;;;;;4.10;3.47;;;6.20;99.90;;;;;;5065732;28;20204;-81
2022/04/03 08:22:04;;;;;;;4.32;2.85;;;5.90;99.90;;;;;;5061479;28;20227;-82
2022/04/03 08:24:32;;;;;;;4.00;3.50;;;5.90;99.90;;;;;;5066791;28;20212;-82
2022/04/03 08:27:00;;;;;;;3.58;2.58;;;5.90;99.90;;;;;;5066095;28;20450;-80
2022/04/03 08:29:30;;;;;;;3.75;2.75;;;6.00;99.90;;;;;;5063384;28;20537;-81
2022/04/03 08:31:58;;;;;;;2.65;2.45;;;6.00;99.90;;;;;;5061009;28;20217;-82
2022/04/03 08:34:26;;;;;;;4.13;3.37;;;6.00;99.90;;;;;;5058943;28;20343;-81
2022/04/03 08:37:11;;;;;;;3.70;3.33;;;6.00;99.90;;;;;;5059392;28;20451;-81
2022/04/03 08:39:39;;;;;;;2.88;2.33;;;5.90;99.90;;;;;;5067312;28;20200;-80
2022/04/03 08:42:08;;;;;;;3.85;3.15;;;5.90;99.90;;;;;;5064110;28;20220;-79
2022/04/03 08:44:37;;;;;;;3.72;2.85;;;5.90;99.90;;;;;;5061332;28;20710;-81
2022/04/03 08:47:09;;;;;;;3.57;3.03;;;5.90;99.90;;;;;;5061942;28;20197;-82
2022/04/03 08:49:40;;;;;;;3.97;3.57;;;5.90;99.90;;;;;;5066588;28;20534;-81
2022/04/03 08:52:13;;;;;;;4.20;3.10;;;5.90;99.90;;;;;;5065706;28;20475;-79
2022/04/03 08:54:41;;;;;;;3.90;3.47;;;5.80;99.90;;;;;;5059024;28;20652;-80
2022/04/03 08:57:10;;;;;;;4.20;3.17;;;6.20;99.90;;;;;;5056810;28;20490;-80
2022/04/03 08:59:39;;;;;;;4.33;3.30;;;5.90;99.90;;;;;;5060898;28;20993;-81
2022/04/03 09:02:08;;;;;;;3.30;2.93;;;5.90;99.90;;;;;;5065470;28;20493;-82
2022/04/03 09:04:38;;;;;;;4.03;3.00;;;6.00;99.90;;;;;;5066652;28;20455;-82
2022/04/03 09:07:07;;;;;;;5.10;3.73;;;6.00;99.90;;;;;;5062798;28;20453;-81
2022/04/03 09:09:35;;;;;;;5.23;3.87;;;6.00;99.90;;;;;;5061101;28;20460;-81
2022/04/03 09:12:15;;;;;;;3.70;3.40;;;6.00;99.90;;;;;;5066985;28;20520;-84
2022/04/03 09:14:50;;;;;;;6.68;3.35;;;6.10;99.90;;;;;;5060996;28;20307;-81
2022/04/03 09:17:33;;;;;;;3.50;3.20;;;6.20;99.90;;;;;;5061164;28;20214;-83
2022/04/03 09:20:05;;;;;;;3.55;3.25;;;6.20;99.90;;;;;;5062487;28;20667;-84
2022/04/03 09:22:35;;;;;;;2.77;2.47;;;6.50;99.90;;;;;;5057771;28;20223;-80
2022/04/03 09:25:04;;;;;;;3.33;2.67;;;6.30;99.90;;;;;;5056549;28;21067;-79
2022/04/03 09:27:35;;;;;;;4.23;3.30;;;6.30;95.30;;;;;;5054987;28;20552;-79
2022/04/03 09:30:07;;;;;;;4.13;3.10;;;6.30;95.60;;;;;;5060911;28;20466;-82
2022/04/03 09:32:36;;;;;;;5.10;3.40;;;6.30;95.10;;;;;;5060940;28;20212;-82
2022/04/03 09:35:05;;;;;;;2.42;2.22;;;6.30;95.50;;;;;;5064872;28;20478;-81
2022/04/03 09:37:34;;;;;;;4.00;2.57;;;6.30;95.60;;;;;;5059134;28;20200;-82
2022/04/03 09:40:03;;;;;;;2.45;2.25;;;6.20;95.90;;;;;;5061254;28;20439;-82
2022/04/03 09:42:31;;;;;;;2.75;2.15;;;6.20;95.30;;;;;;5062771;28;20345;-82
2022/04/03 09:45:06;;;;;;;2.60;2.40;;;6.30;97.00;;;;;;5058089;28;20188;-81
2022/04/03 09:47:35;;;;;;;2.97;2.77;;;6.40;99.90;;;;;;5063626;28;20451;-81
2022/04/03 09:50:06;;;;;;;2.75;2.50;;;6.40;96.70;;;;;;5058000;28;20454;-82
2022/04/03 09:52:39;;;;;;;2.60;2.40;;;6.40;95.20;;;;;;5061816;28;20197;-80
2022/04/03 09:55:13;;;;;;;2.17;1.90;;;6.30;94.90;;;;;;5059195;28;20960;-79
2022/04/03 09:57:44;;;;;;;2.60;2.25;;;6.30;94.80;;;;;;5065061;28;20473;-82
2022/04/03 10:00:33;;;;;;;5.67;2.37;;;6.30;95.10;;;;;;5065172;28;20302;-83
2022/04/03 10:03:03;;;;;;;3.25;2.53;;;6.30;95.20;;;;;;5069466;28;21273;-81
2022/04/03 10:05:33;;;;;;;2.20;2.00;;;6.30;95.70;;;;;;5063445;28;20200;-80
2022/04/03 10:08:04;;;;;;;2.63;2.40;;;6.30;92.10;;;;;;5066427;28;20521;-81
2022/04/03 10:10:34;;;;;;;3.27;2.50;;;6.40;95.10;;;;;;5065796;28;20574;-80
2022/04/03 10:13:04;;;;;;;3.10;2.80;;;6.40;95.10;;;;;;5069600;28;20449;-80
2022/04/03 10:15:34;;;;;;;2.78;2.30;;;6.40;86.50;;;;;;5063808;28;20216;-82
2022/04/03 10:18:04;;;;;;;2.50;2.27;;;6.30;78.60;;;;;;5064126;28;20193;-81
2022/04/03 10:20:36;;;;;;;2.60;2.37;;;6.40;81.50;;;;;;5071065;28;20584;-81
2022/04/03 10:23:10;;;;;;;5.97;2.40;;;6.50;79.90;;;;;;5063162;28;20501;-80
2022/04/03 10:25:44;;;;;;;2.07;1.97;;;6.50;62.90;;;;;;5065403;28;20462;-81
2022/04/03 10:28:14;;;;;;;2.33;2.17;;;6.60;70.90;;;;;;5057458;28;20463;-81
2022/04/03 10:30:43;;;;;;;6.88;3.20;;;6.70;75.30;;;;;;5062364;28;20445;-81
2022/04/03 10:33:19;;;;;;;4.27;2.50;;;6.70;87.20;;;;;;5066671;28;20254;-80
2022/04/03 10:35:50;;;;;;;4.05;2.92;;;6.70;68.40;;;;;;5059882;28;20471;-80
2022/04/03 10:38:20;;;;;;;4.40;3.30;;;6.70;70.80;;;;;;5062756;28;20197;-79
2022/04/03 10:40:59;;;;;;;3.83;3.30;;;6.50;72.30;;;;;;5057711;28;20985;-81
2022/04/03 10:43:29;;;;;;;3.70;2.80;;;6.50;73.30;;;;;;5058578;28;21038;-82
2022/04/03 10:45:59;;;;;;;3.13;2.83;;;6.50;72.30;;;;;;5067041;28;20180;-81
2022/04/03 10:48:31;;;;;;;2.50;2.10;;;6.40;76.10;;;;;;5069022;28;20250;-80
2022/04/03 10:51:05;;;;;;;5.10;3.30;;;6.40;83.50;;;;;;5059150;28;20457;-80
2022/04/03 10:53:36;;;;;;;2.50;2.30;;;6.50;78.90;;;;;;5060685;28;20595;-82
2022/04/03 10:56:09;;;;;;;3.40;2.70;;;6.60;75.10;;;;;;5065820;28;20462;-78
2022/04/03 10:58:49;;;;;;;2.35;2.25;;;6.40;74.30;;;;;;5059253;28;20291;-82
2022/04/03 11:01:27;;;;;;;2.58;2.38;;;6.40;69.20;;;;;;5058176;28;20239;-80
2022/04/03 11:04:00;;;;;;;2.75;2.55;;;6.30;72.90;;;;;;5066417;28;20192;-78
2022/04/03 11:06:34;;;;;;;3.80;3.13;;;6.20;77.00;;;;;;5065445;28;20190;-80
2022/04/03 11:09:21;;;;;;;2.47;1.95;;;6.20;71.80;;;;;;5064632;28;20454;-79
2022/04/03 11:11:54;;;;;;;2.60;2.40;;;6.20;77.50;;;;;;5066489;28;20251;-80
2022/04/03 11:14:57;;;;;;;3.03;2.50;;;6.20;66.40;;;;;;5069666;28;20885;-81
2022/04/03 11:17:48;;;;;;;3.65;2.33;;;6.10;65.30;;;;;;5066364;28;20218;-81
2022/04/03 11:20:38;;;;;;;2.90;2.67;;;6.10;68.80;;;;;;5068816;28;20298;-80
2022/04/03 11:23:08;;;;;;;3.42;2.80;;;6.00;72.40;;;;;;5059084;28;20450;-79
2022/04/03 11:25:36;;;;;;;4.70;2.30;;;6.10;67.40;;;;;;5061592;28;20634;-79
2022/04/03 11:28:06;;;;;;;3.40;2.87;;;6.00;69.70;;;;;;5062846;28;20872;-76
2022/04/03 11:30:35;;;;;;;4.30;2.40;;;6.00;75.50;;;;;;5066739;28;20474;-79
2022/04/03 11:33:06;;;;;;;2.55;1.92;;;6.00;80.40;;;;;;5066006;28;20196;-77
2022/04/03 11:35:42;;;;;;;2.05;1.80;;;6.00;81.30;;;;;;5066241;28;20927;-80
2022/04/03 11:38:11;;;;;;;5.05;3.45;;;6.00;87.40;;;;;;5058585;28;20231;-80
2022/04/03 11:40:41;;;;;;;5.30;3.20;;;6.10;88.90;;;;;;5064583;28;20224;-78
2022/04/03 11:43:13;;;;;;;2.97;2.28;;;5.80;80.30;;;;;;5067002;28;20197;-78
2022/04/03 11:45:41;;;;;;;4.82;4.43;;;5.90;78.10;;;;;;5061644;28;20196;-78
2022/04/03 11:48:19;;;;;;;3.58;3.10;;;5.70;80.70;;;;;;5069647;28;20271;-79
2022/04/03 11:50:49;;;;;;;3.45;3.15;;;5.60;77.50;;;;;;5061707;28;20448;-78
2022/04/03 11:53:18;;;;;;;5.18;3.15;;;5.60;76.90;;;;;;5058646;28;20193;-77
2022/04/03 11:55:47;;;;;;;2.83;2.28;;;5.60;76.20;;;;;;5061809;28;20254;-78
2022/04/03 11:58:15;;;;;;;2.30;2.10;;;5.60;73.90;;;;;;5066406;28;20200;-81
2022/04/03 12:00:48;;;;;;;2.90;2.60;;;5.80;69.70;;;;;;5066645;28;20243;-81
2022/04/03 12:03:28;;;;;;;3.42;2.45;;;5.80;78.30;;;;;;5062367;28;20197;-82
2022/04/03 12:06:18;;;;;;;2.22;1.75;;;6.10;64.90;;;;;;5065906;28;20216;-80
2022/04/03 12:08:50;;;;;;;4.43;2.03;;;5.80;63.70;;;;;;5063822;28;20213;-81
2022/04/03 12:11:23;;;;;;;2.78;1.90;;;5.90;63.80;;;;;;5062692;28;20221;-80
2022/04/03 12:13:51;;;;;;;2.90;1.90;;;6.00;59.60;;;;;;5061954;28;20224;-79
2022/04/03 12:16:22;;;;;;;2.75;2.15;;;5.90;52.80;;;;;;5065115;28;20204;-81
2022/04/03 12:18:57;;;;;;;2.85;2.10;;;5.90;54.30;;;;;;5068357;28;20243;-82
2022/04/03 12:21:38;;;;;;;3.58;2.35;;;6.00;56.00;;;;;;5067854;28;20707;-80
2022/04/03 12:24:09;;;;;;;2.58;2.20;;;6.10;60.90;;;;;;5070060;28;20520;-79
2022/04/03 12:26:44;;;;;;;2.10;1.90;;;6.00;56.80;;;;;;5070062;28;20234;-80
2022/04/03 12:29:14;;;;;;;3.05;2.58;;;6.00;63.60;;;;;;5070690;28;20461;-80
2022/04/03 12:31:44;;;;;;;3.45;1.70;;;6.00;67.30;;;;;;5064177;28;20231;-81
2022/04/03 12:34:15;;;;;;;3.40;2.15;;;6.00;75.90;;;;;;5068961;28;20193;-80
2022/04/03 12:36:45;;;;;;;1.83;1.60;;;6.10;69.40;;;;;;5063103;28;20218;-81
2022/04/03 12:39:38;;;;;;;2.42;1.88;;;6.20;76.00;;;;;;5061395;28;20199;-80
2022/04/03 12:42:18;;;;;;;2.45;2.05;;;6.00;81.40;;;;;;5063711;28;20230;-79
2022/04/03 12:44:50;;;;;;;2.78;2.28;;;6.00;77.70;;;;;;5065566;28;20454;-80
2022/04/03 12:47:20;;;;;;;3.70;2.15;;;6.00;76.90;;;;;;5063741;28;20203;-80
2022/04/03 12:50:08;;;;;;;3.47;2.33;;;6.00;82.60;;;;;;5065407;28;20204;-80
2022/04/03 12:52:42;;;;;;;4.50;2.15;;;5.90;81.00;;;;;;5059895;28;20196;-81
2022/04/03 12:55:32;;;;;;;2.55;2.17;;;6.00;86.50;;;;;;5067159;28;20200;-82
2022/04/03 12:58:31;;;;;;;2.05;1.85;;;6.00;83.90;;;;;;5065708;28;20207;-82
2022/04/03 13:01:06;;;;;;;1.92;1.63;;;6.00;88.80;;;;;;5061923;28;20696;-81
2022/04/03 13:03:40;;;;;;;3.22;2.50;;;6.10;83.30;;;;;;5066862;28;20503;-79
2022/04/03 13:06:11;;;;;;;2.92;2.70;;;6.10;85.90;;;;;;5068632;28;20208;-81
2022/04/03 13:08:48;;;;;;;2.90;2.20;;;6.00;90.60;;;;;;5069888;28;20259;-81
2022/04/03 13:11:30;;;;;;;4.18;2.15;;;6.10;84.80;;;;;;5066797;28;20212;-81
2022/04/03 13:14:20;;;;;;;2.03;1.85;;;6.10;76.70;;;;;;5066668;28;20653;-81
2022/04/03 13:16:50;;;;;;;6.13;2.17;;;6.10;82.60;;;;;;5068902;28;20223;-84